sensor_id;sensor_type;location;lat;lon;timestamp;P1;durP1;ratioP1;P2;durP2;ratioP2
47103;SDS011;32853;52.164;5.400;2023-07-22T00:01:59;11.27;;;5.63;;
47103;SDS011;32853;52.164;5.400;2023-07-22T00:04:31;13.48;;;5.68;;
47103;SDS011;32853;52.164;5.400;2023-07-22T00:06:56;13.25;;;6.10;;
47103;SDS011;32853;52.164;5.400;2023-07-22T00:09:22;12.05;;;5.55;;
47103;SDS011;32853;52.164;5.400;2023-07-22T00:11:49;10.65;;;5.15;;
47103;SDS011;32853;52.164;5.400;2023-07-22T00:14:19;13.57;;;6.07;;
47103;SDS011;32853;52.164;5.400;2023-07-22T00:16:45;11.82;;;5.55;;
47103;SDS011;32853;52.164;5.400;2023-07-22T00:19:10;11.55;;;5.47;;
47103;SDS011;32853;52.164;5.400;2023-07-22T00:21:38;11.63;;;5.95;;
47103;SDS011;32853;52.164;5.400;2023-07-22T00:24:10;10.52;;;5.13;;
47103;SDS011;32853;52.164;5.400;2023-07-22T00:26:40;12.18;;;6.60;;
47103;SDS011;32853;52.164;5.400;2023-07-22T00:29:07;16.55;;;5.82;;
47103;SDS011;32853;52.164;5.400;2023-07-22T00:31:33;13.73;;;5.88;;
47103;SDS011;32853;52.164;5.400;2023-07-22T00:33:58;13.52;;;5.85;;
47103;SDS011;32853;52.164;5.400;2023-07-22T00:36:24;15.23;;;6.28;;
47103;SDS011;32853;52.164;5.400;2023-07-22T00:38:49;10.40;;;5.53;;
47103;SDS011;32853;52.164;5.400;2023-07-22T00:41:15;13.43;;;5.90;;
47103;SDS011;32853;52.164;5.400;2023-07-22T00:43:40;12.13;;;6.07;;
47103;SDS011;32853;52.164;5.400;2023-07-22T00:46:05;16.65;;;7.63;;
47103;SDS011;32853;52.164;5.400;2023-07-22T00:48:31;13.48;;;6.85;;
47103;SDS011;32853;52.164;5.400;2023-07-22T00:50:57;16.88;;;7.78;;
47103;SDS011;32853;52.164;5.400;2023-07-22T00:53:23;17.33;;;6.22;;
47103;SDS011;32853;52.164;5.400;2023-07-22T00:55:48;16.65;;;7.15;;
47103;SDS011;32853;52.164;5.400;2023-07-22T00:58:14;14.73;;;6.55;;
47103;SDS011;32853;52.164;5.400;2023-07-22T01:00:40;17.20;;;6.45;;
47103;SDS011;32853;52.164;5.400;2023-07-22T01:03:06;15.48;;;6.82;;
47103;SDS011;32853;52.164;5.400;2023-07-22T01:05:33;14.57;;;7.28;;
47103;SDS011;32853;52.164;5.400;2023-07-22T01:08:00;14.80;;;6.38;;
47103;SDS011;32853;52.164;5.400;2023-07-22T01:10:25;10.52;;;6.13;;
47103;SDS011;32853;52.164;5.400;2023-07-22T01:12:51;18.90;;;8.07;;
47103;SDS011;32853;52.164;5.400;2023-07-22T01:15:16;11.93;;;6.40;;
47103;SDS011;32853;52.164;5.400;2023-07-22T01:17:43;12.35;;;5.68;;
47103;SDS011;32853;52.164;5.400;2023-07-22T01:20:09;17.38;;;6.57;;
47103;SDS011;32853;52.164;5.400;2023-07-22T01:22:35;16.85;;;7.55;;
47103;SDS011;32853;52.164;5.400;2023-07-22T01:25:01;13.95;;;6.65;;
47103;SDS011;32853;52.164;5.400;2023-07-22T01:27:26;18.20;;;7.15;;
47103;SDS011;32853;52.164;5.400;2023-07-22T01:29:52;17.42;;;7.20;;
47103;SDS011;32853;52.164;5.400;2023-07-22T01:32:18;21.45;;;7.85;;
47103;SDS011;32853;52.164;5.400;2023-07-22T01:34:46;14.98;;;7.93;;
47103;SDS011;32853;52.164;5.400;2023-07-22T01:37:13;13.18;;;6.45;;
47103;SDS011;32853;52.164;5.400;2023-07-22T01:39:39;16.70;;;7.38;;
47103;SDS011;32853;52.164;5.400;2023-07-22T01:42:04;13.00;;;7.13;;
47103;SDS011;32853;52.164;5.400;2023-07-22T01:44:30;12.27;;;6.43;;
47103;SDS011;32853;52.164;5.400;2023-07-22T01:46:58;15.82;;;7.53;;
47103;SDS011;32853;52.164;5.400;2023-07-22T01:49:27;18.58;;;7.40;;
47103;SDS011;32853;52.164;5.400;2023-07-22T01:51:52;12.82;;;6.78;;
47103;SDS011;32853;52.164;5.400;2023-07-22T01:54:18;18.30;;;9.10;;
47103;SDS011;32853;52.164;5.400;2023-07-22T01:56:43;15.45;;;7.15;;
47103;SDS011;32853;52.164;5.400;2023-07-22T01:59:26;17.95;;;7.85;;
47103;SDS011;32853;52.164;5.400;2023-07-22T02:04:26;14.93;;;8.57;;
47103;SDS011;32853;52.164;5.400;2023-07-22T02:07:00;18.95;;;7.75;;
47103;SDS011;32853;52.164;5.400;2023-07-22T02:09:26;13.90;;;7.93;;
47103;SDS011;32853;52.164;5.400;2023-07-22T02:11:54;19.60;;;8.60;;
47103;SDS011;32853;52.164;5.400;2023-07-22T02:14:21;21.23;;;9.27;;
47103;SDS011;32853;52.164;5.400;2023-07-22T02:16:49;19.48;;;8.45;;
47103;SDS011;32853;52.164;5.400;2023-07-22T02:19:14;15.10;;;7.32;;
47103;SDS011;32853;52.164;5.400;2023-07-22T02:21:40;16.20;;;8.23;;
47103;SDS011;32853;52.164;5.400;2023-07-22T02:24:14;16.90;;;8.20;;
47103;SDS011;32853;52.164;5.400;2023-07-22T02:26:40;18.83;;;9.13;;
47103;SDS011;32853;52.164;5.400;2023-07-22T02:34:11;21.27;;;9.13;;
47103;SDS011;32853;52.164;5.400;2023-07-22T02:36:45;20.00;;;8.18;;
47103;SDS011;32853;52.164;5.400;2023-07-22T02:39:10;21.23;;;8.75;;
47103;SDS011;32853;52.164;5.400;2023-07-22T02:41:39;19.33;;;7.65;;
47103;SDS011;32853;52.164;5.400;2023-07-22T02:44:04;19.08;;;8.77;;
47103;SDS011;32853;52.164;5.400;2023-07-22T02:46:30;16.73;;;7.38;;
47103;SDS011;32853;52.164;5.400;2023-07-22T02:48:56;18.20;;;9.07;;
47103;SDS011;32853;52.164;5.400;2023-07-22T02:51:22;14.35;;;7.47;;
47103;SDS011;32853;52.164;5.400;2023-07-22T02:53:47;17.88;;;8.40;;
47103;SDS011;32853;52.164;5.400;2023-07-22T02:56:13;16.02;;;8.73;;
47103;SDS011;32853;52.164;5.400;2023-07-22T02:58:38;22.38;;;8.65;;
47103;SDS011;32853;52.164;5.400;2023-07-22T03:01:09;20.85;;;8.23;;
47103;SDS011;32853;52.164;5.400;2023-07-22T03:03:35;19.92;;;7.57;;
47103;SDS011;32853;52.164;5.400;2023-07-22T03:06:03;18.15;;;9.25;;
47103;SDS011;32853;52.164;5.400;2023-07-22T03:08:37;16.85;;;8.45;;
47103;SDS011;32853;52.164;5.400;2023-07-22T03:11:08;19.38;;;8.38;;
47103;SDS011;32853;52.164;5.400;2023-07-22T03:13:38;24.48;;;10.13;;
47103;SDS011;32853;52.164;5.400;2023-07-22T03:16:04;18.85;;;8.02;;
47103;SDS011;32853;52.164;5.400;2023-07-22T03:18:30;18.80;;;8.07;;
47103;SDS011;32853;52.164;5.400;2023-07-22T03:20:56;18.45;;;8.45;;
47103;SDS011;32853;52.164;5.400;2023-07-22T03:23:22;19.92;;;8.50;;
47103;SDS011;32853;52.164;5.400;2023-07-22T03:25:50;19.05;;;8.10;;
47103;SDS011;32853;52.164;5.400;2023-07-22T03:28:18;19.38;;;9.27;;
47103;SDS011;32853;52.164;5.400;2023-07-22T03:30:43;21.48;;;8.93;;
47103;SDS011;32853;52.164;5.400;2023-07-22T03:33:08;22.60;;;8.82;;
47103;SDS011;32853;52.164;5.400;2023-07-22T03:35:38;25.13;;;10.70;;
47103;SDS011;32853;52.164;5.400;2023-07-22T03:38:04;23.73;;;8.20;;
47103;SDS011;32853;52.164;5.400;2023-07-22T03:40:32;20.92;;;9.18;;
47103;SDS011;32853;52.164;5.400;2023-07-22T03:42:57;17.83;;;8.90;;
47103;SDS011;32853;52.164;5.400;2023-07-22T03:45:23;19.55;;;8.25;;
47103;SDS011;32853;52.164;5.400;2023-07-22T03:47:52;21.17;;;8.48;;
47103;SDS011;32853;52.164;5.400;2023-07-22T03:50:23;18.63;;;9.00;;
47103;SDS011;32853;52.164;5.400;2023-07-22T03:52:51;20.65;;;8.48;;
47103;SDS011;32853;52.164;5.400;2023-07-22T03:55:16;20.13;;;9.63;;
47103;SDS011;32853;52.164;5.400;2023-07-22T03:57:43;15.27;;;7.68;;
47103;SDS011;32853;52.164;5.400;2023-07-22T04:00:13;14.82;;;7.15;;
47103;SDS011;32853;52.164;5.400;2023-07-22T04:02:38;19.25;;;9.05;;
47103;SDS011;32853;52.164;5.400;2023-07-22T04:05:04;19.20;;;8.95;;
47103;SDS011;32853;52.164;5.400;2023-07-22T04:07:30;24.52;;;9.73;;
47103;SDS011;32853;52.164;5.400;2023-07-22T04:09:55;19.98;;;8.88;;
47103;SDS011;32853;52.164;5.400;2023-07-22T04:12:21;17.02;;;7.65;;
47103;SDS011;32853;52.164;5.400;2023-07-22T04:14:46;16.70;;;8.52;;
47103;SDS011;32853;52.164;5.400;2023-07-22T04:17:12;16.67;;;7.93;;
47103;SDS011;32853;52.164;5.400;2023-07-22T04:19:53;16.70;;;7.32;;
47103;SDS011;32853;52.164;5.400;2023-07-22T04:22:30;14.18;;;7.55;;
47103;SDS011;32853;52.164;5.400;2023-07-22T04:24:55;14.88;;;6.80;;
47103;SDS011;32853;52.164;5.400;2023-07-22T04:27:20;17.65;;;7.63;;
47103;SDS011;32853;52.164;5.400;2023-07-22T04:29:50;18.60;;;7.13;;
47103;SDS011;32853;52.164;5.400;2023-07-22T04:32:15;15.02;;;7.43;;
47103;SDS011;32853;52.164;5.400;2023-07-22T04:34:41;18.23;;;7.90;;
47103;SDS011;32853;52.164;5.400;2023-07-22T04:37:06;17.77;;;8.18;;
47103;SDS011;32853;52.164;5.400;2023-07-22T04:42:02;20.73;;;7.53;;
47103;SDS011;32853;52.164;5.400;2023-07-22T04:44:27;24.92;;;9.90;;
47103;SDS011;32853;52.164;5.400;2023-07-22T04:46:59;20.55;;;9.30;;
47103;SDS011;32853;52.164;5.400;2023-07-22T04:49:25;23.77;;;8.23;;
47103;SDS011;32853;52.164;5.400;2023-07-22T04:51:52;19.30;;;8.23;;
47103;SDS011;32853;52.164;5.400;2023-07-22T04:54:20;20.98;;;8.57;;
47103;SDS011;32853;52.164;5.400;2023-07-22T04:56:49;18.70;;;7.55;;
47103;SDS011;32853;52.164;5.400;2023-07-22T04:59:14;16.85;;;8.13;;
47103;SDS011;32853;52.164;5.400;2023-07-22T05:01:40;19.77;;;9.23;;
47103;SDS011;32853;52.164;5.400;2023-07-22T05:04:06;25.73;;;9.07;;
47103;SDS011;32853;52.164;5.400;2023-07-22T05:06:34;24.77;;;10.88;;
47103;SDS011;32853;52.164;5.400;2023-07-22T05:09:00;27.05;;;9.40;;
47103;SDS011;32853;52.164;5.400;2023-07-22T05:11:26;23.70;;;9.85;;
47103;SDS011;32853;52.164;5.400;2023-07-22T05:13:51;26.10;;;9.00;;
47103;SDS011;32853;52.164;5.400;2023-07-22T05:16:16;25.08;;;9.48;;
47103;SDS011;32853;52.164;5.400;2023-07-22T05:18:42;20.60;;;10.15;;
47103;SDS011;32853;52.164;5.400;2023-07-22T05:21:14;26.20;;;10.65;;
47103;SDS011;32853;52.164;5.400;2023-07-22T05:23:40;24.98;;;9.63;;
47103;SDS011;32853;52.164;5.400;2023-07-22T05:26:05;28.55;;;10.38;;
47103;SDS011;32853;52.164;5.400;2023-07-22T05:28:31;27.83;;;10.60;;
47103;SDS011;32853;52.164;5.400;2023-07-22T05:30:56;34.50;;;10.57;;
47103;SDS011;32853;52.164;5.400;2023-07-22T05:33:21;28.15;;;9.55;;
47103;SDS011;32853;52.164;5.400;2023-07-22T05:35:47;29.92;;;11.32;;
47103;SDS011;32853;52.164;5.400;2023-07-22T05:38:12;31.45;;;11.15;;
47103;SDS011;32853;52.164;5.400;2023-07-22T05:40:37;25.23;;;9.88;;
47103;SDS011;32853;52.164;5.400;2023-07-22T05:43:07;27.30;;;10.98;;
47103;SDS011;32853;52.164;5.400;2023-07-22T05:45:37;30.70;;;10.20;;
47103;SDS011;32853;52.164;5.400;2023-07-22T05:48:11;23.73;;;10.73;;
47103;SDS011;32853;52.164;5.400;2023-07-22T05:50:40;25.88;;;11.25;;
47103;SDS011;32853;52.164;5.400;2023-07-22T05:53:08;28.52;;;11.10;;
47103;SDS011;32853;52.164;5.400;2023-07-22T05:55:41;27.95;;;12.00;;
47103;SDS011;32853;52.164;5.400;2023-07-22T05:58:18;23.15;;;10.68;;
47103;SDS011;32853;52.164;5.400;2023-07-22T06:00:46;28.70;;;11.45;;
47103;SDS011;32853;52.164;5.400;2023-07-22T06:03:12;32.08;;;11.57;;
47103;SDS011;32853;52.164;5.400;2023-07-22T06:05:37;27.88;;;11.98;;
47103;SDS011;32853;52.164;5.400;2023-07-22T06:08:03;34.05;;;12.27;;
47103;SDS011;32853;52.164;5.400;2023-07-22T06:10:29;28.80;;;11.20;;
47103;SDS011;32853;52.164;5.400;2023-07-22T06:12:55;26.33;;;10.80;;
47103;SDS011;32853;52.164;5.400;2023-07-22T06:15:20;28.77;;;11.73;;
47103;SDS011;32853;52.164;5.400;2023-07-22T06:17:45;25.80;;;11.57;;
47103;SDS011;32853;52.164;5.400;2023-07-22T06:20:14;25.23;;;11.05;;
47103;SDS011;32853;52.164;5.400;2023-07-22T06:22:40;28.33;;;12.15;;
47103;SDS011;32853;52.164;5.400;2023-07-22T06:25:14;28.85;;;11.80;;
47103;SDS011;32853;52.164;5.400;2023-07-22T06:27:40;33.55;;;12.43;;
47103;SDS011;32853;52.164;5.400;2023-07-22T06:30:05;33.42;;;12.73;;
47103;SDS011;32853;52.164;5.400;2023-07-22T06:32:33;23.60;;;11.05;;
47103;SDS011;32853;52.164;5.400;2023-07-22T06:34:59;28.17;;;10.80;;
47103;SDS011;32853;52.164;5.400;2023-07-22T06:37:25;29.00;;;11.95;;
47103;SDS011;32853;52.164;5.400;2023-07-22T06:39:56;25.27;;;11.15;;
47103;SDS011;32853;52.164;5.400;2023-07-22T06:42:22;30.17;;;11.07;;
47103;SDS011;32853;52.164;5.400;2023-07-22T06:44:48;35.70;;;10.27;;
47103;SDS011;32853;52.164;5.400;2023-07-22T06:47:14;28.02;;;12.10;;
47103;SDS011;32853;52.164;5.400;2023-07-22T06:49:40;30.67;;;11.95;;
47103;SDS011;32853;52.164;5.400;2023-07-22T06:52:13;27.15;;;10.75;;
47103;SDS011;32853;52.164;5.400;2023-07-22T06:54:39;23.70;;;10.05;;
47103;SDS011;32853;52.164;5.400;2023-07-22T06:57:09;27.73;;;10.85;;
47103;SDS011;32853;52.164;5.400;2023-07-22T06:59:37;26.77;;;10.90;;
47103;SDS011;32853;52.164;5.400;2023-07-22T07:02:02;23.80;;;9.68;;
47103;SDS011;32853;52.164;5.400;2023-07-22T07:04:29;29.20;;;12.07;;
47103;SDS011;32853;52.164;5.400;2023-07-22T07:06:55;24.33;;;11.13;;
47103;SDS011;32853;52.164;5.400;2023-07-22T07:09:21;20.70;;;10.13;;
47103;SDS011;32853;52.164;5.400;2023-07-22T07:11:47;30.02;;;10.98;;
47103;SDS011;32853;52.164;5.400;2023-07-22T07:14:18;25.60;;;10.68;;
47103;SDS011;32853;52.164;5.400;2023-07-22T07:16:49;21.33;;;9.82;;
47103;SDS011;32853;52.164;5.400;2023-07-22T07:22:03;24.40;;;11.45;;
47103;SDS011;32853;52.164;5.400;2023-07-22T07:24:38;24.88;;;9.52;;
47103;SDS011;32853;52.164;5.400;2023-07-22T07:27:04;22.00;;;9.73;;
47103;SDS011;32853;52.164;5.400;2023-07-22T07:29:43;20.73;;;9.52;;
47103;SDS011;32853;52.164;5.400;2023-07-22T07:32:26;22.88;;;10.23;;
47103;SDS011;32853;52.164;5.400;2023-07-22T07:34:51;20.60;;;9.48;;
47103;SDS011;32853;52.164;5.400;2023-07-22T07:37:17;22.10;;;9.75;;
47103;SDS011;32853;52.164;5.400;2023-07-22T07:39:42;19.38;;;9.57;;
47103;SDS011;32853;52.164;5.400;2023-07-22T07:42:07;22.02;;;10.55;;
47103;SDS011;32853;52.164;5.400;2023-07-22T07:44:34;33.78;;;9.40;;
47103;SDS011;32853;52.164;5.400;2023-07-22T07:47:02;22.20;;;10.15;;
47103;SDS011;32853;52.164;5.400;2023-07-22T07:49:30;22.05;;;10.45;;
47103;SDS011;32853;52.164;5.400;2023-07-22T07:54:25;20.42;;;8.77;;
47103;SDS011;32853;52.164;5.400;2023-07-22T07:56:53;27.70;;;10.15;;
47103;SDS011;32853;52.164;5.400;2023-07-22T07:59:23;24.02;;;9.10;;
47103;SDS011;32853;52.164;5.400;2023-07-22T08:01:50;20.30;;;7.85;;
47103;SDS011;32853;52.164;5.400;2023-07-22T08:04:15;26.02;;;9.45;;
47103;SDS011;32853;52.164;5.400;2023-07-22T08:06:43;24.13;;;8.35;;
47103;SDS011;32853;52.164;5.400;2023-07-22T08:09:11;24.58;;;8.63;;
47103;SDS011;32853;52.164;5.400;2023-07-22T08:11:46;20.30;;;9.00;;
47103;SDS011;32853;52.164;5.400;2023-07-22T08:14:12;17.00;;;7.43;;
47103;SDS011;32853;52.164;5.400;2023-07-22T08:16:41;16.15;;;7.10;;
47103;SDS011;32853;52.164;5.400;2023-07-22T08:19:09;14.68;;;7.00;;
47103;SDS011;32853;52.164;5.400;2023-07-22T08:21:35;17.35;;;7.45;;
47103;SDS011;32853;52.164;5.400;2023-07-22T08:24:01;20.45;;;7.93;;
47103;SDS011;32853;52.164;5.400;2023-07-22T08:26:27;25.23;;;9.10;;
47103;SDS011;32853;52.164;5.400;2023-07-22T08:28:53;19.13;;;8.07;;
47103;SDS011;32853;52.164;5.400;2023-07-22T08:31:18;18.08;;;8.00;;
47103;SDS011;32853;52.164;5.400;2023-07-22T08:33:44;14.02;;;6.53;;
47103;SDS011;32853;52.164;5.400;2023-07-22T08:36:09;16.35;;;7.97;;
47103;SDS011;32853;52.164;5.400;2023-07-22T08:38:35;17.27;;;6.38;;
47103;SDS011;32853;52.164;5.400;2023-07-22T08:41:00;14.30;;;6.38;;
47103;SDS011;32853;52.164;5.400;2023-07-22T08:43:28;15.80;;;6.68;;
47103;SDS011;32853;52.164;5.400;2023-07-22T08:45:54;15.35;;;6.90;;
47103;SDS011;32853;52.164;5.400;2023-07-22T08:48:21;14.38;;;6.85;;
47103;SDS011;32853;52.164;5.400;2023-07-22T08:50:53;14.65;;;6.68;;
47103;SDS011;32853;52.164;5.400;2023-07-22T08:53:21;13.80;;;6.28;;
47103;SDS011;32853;52.164;5.400;2023-07-22T08:56:06;20.17;;;6.38;;
47103;SDS011;32853;52.164;5.400;2023-07-22T08:58:31;12.55;;;6.03;;
47103;SDS011;32853;52.164;5.400;2023-07-22T09:01:04;13.02;;;5.60;;
47103;SDS011;32853;52.164;5.400;2023-07-22T09:03:30;19.05;;;5.97;;
47103;SDS011;32853;52.164;5.400;2023-07-22T09:05:57;10.93;;;4.70;;
47103;SDS011;32853;52.164;5.400;2023-07-22T09:08:23;13.00;;;5.03;;
47103;SDS011;32853;52.164;5.400;2023-07-22T09:10:50;12.70;;;5.90;;
47103;SDS011;32853;52.164;5.400;2023-07-22T09:13:15;13.30;;;4.43;;
47103;SDS011;32853;52.164;5.400;2023-07-22T09:15:44;7.18;;;3.92;;
47103;SDS011;32853;52.164;5.400;2023-07-22T09:18:20;13.73;;;4.25;;
47103;SDS011;32853;52.164;5.400;2023-07-22T09:20:48;10.20;;;3.03;;
47103;SDS011;32853;52.164;5.400;2023-07-22T09:23:31;12.55;;;3.63;;
47103;SDS011;32853;52.164;5.400;2023-07-22T09:26:13;10.43;;;3.92;;
47103;SDS011;32853;52.164;5.400;2023-07-22T09:28:52;7.70;;;3.78;;
47103;SDS011;32853;52.164;5.400;2023-07-22T09:31:23;9.57;;;4.57;;
47103;SDS011;32853;52.164;5.400;2023-07-22T09:33:50;10.00;;;4.03;;
47103;SDS011;32853;52.164;5.400;2023-07-22T09:36:16;14.40;;;4.10;;
47103;SDS011;32853;52.164;5.400;2023-07-22T09:38:41;5.97;;;3.20;;
47103;SDS011;32853;52.164;5.400;2023-07-22T09:41:07;8.55;;;3.42;;
47103;SDS011;32853;52.164;5.400;2023-07-22T09:43:37;8.43;;;3.22;;
47103;SDS011;32853;52.164;5.400;2023-07-22T09:46:07;8.70;;;2.92;;
47103;SDS011;32853;52.164;5.400;2023-07-22T09:48:47;8.60;;;3.08;;
47103;SDS011;32853;52.164;5.400;2023-07-22T09:51:19;8.30;;;3.03;;
47103;SDS011;32853;52.164;5.400;2023-07-22T09:56:32;10.95;;;3.03;;
47103;SDS011;32853;52.164;5.400;2023-07-22T09:59:09;6.28;;;3.55;;
47103;SDS011;32853;52.164;5.400;2023-07-22T10:01:40;8.60;;;3.33;;
47103;SDS011;32853;52.164;5.400;2023-07-22T10:04:11;12.27;;;3.53;;
47103;SDS011;32853;52.164;5.400;2023-07-22T10:06:40;8.63;;;3.67;;
47103;SDS011;32853;52.164;5.400;2023-07-22T10:09:09;10.77;;;4.07;;
47103;SDS011;32853;52.164;5.400;2023-07-22T10:11:45;6.75;;;3.10;;
47103;SDS011;32853;52.164;5.400;2023-07-22T10:14:10;9.93;;;3.60;;
47103;SDS011;32853;52.164;5.400;2023-07-22T10:16:41;7.50;;;2.90;;
47103;SDS011;32853;52.164;5.400;2023-07-22T10:21:42;5.90;;;3.15;;
47103;SDS011;32853;52.164;5.400;2023-07-22T10:24:09;6.28;;;3.65;;
47103;SDS011;32853;52.164;5.400;2023-07-22T10:26:35;3.95;;;2.58;;
47103;SDS011;32853;52.164;5.400;2023-07-22T10:29:02;7.97;;;2.85;;
47103;SDS011;32853;52.164;5.400;2023-07-22T10:31:30;8.63;;;3.20;;
47103;SDS011;32853;52.164;5.400;2023-07-22T10:33:56;7.03;;;2.65;;
47103;SDS011;32853;52.164;5.400;2023-07-22T10:36:22;6.35;;;2.70;;
47103;SDS011;32853;52.164;5.400;2023-07-22T10:41:23;5.90;;;1.73;;
47103;SDS011;32853;52.164;5.400;2023-07-22T10:43:56;4.72;;;3.45;;
47103;SDS011;32853;52.164;5.400;2023-07-22T10:46:39;4.32;;;2.67;;
47103;SDS011;32853;52.164;5.400;2023-07-22T10:49:11;6.88;;;2.33;;
47103;SDS011;32853;52.164;5.400;2023-07-22T10:51:40;3.88;;;2.03;;
47103;SDS011;32853;52.164;5.400;2023-07-22T10:54:12;7.78;;;2.55;;
47103;SDS011;32853;52.164;5.400;2023-07-22T10:56:40;6.75;;;2.60;;
47103;SDS011;32853;52.164;5.400;2023-07-22T10:59:09;7.13;;;2.38;;
47103;SDS011;32853;52.164;5.400;2023-07-22T11:01:36;6.20;;;2.17;;
47103;SDS011;32853;52.164;5.400;2023-07-22T11:06:56;4.30;;;2.35;;
47103;SDS011;32853;52.164;5.400;2023-07-22T11:14:51;5.38;;;2.75;;
47103;SDS011;32853;52.164;5.400;2023-07-22T11:17:21;5.25;;;2.90;;
47103;SDS011;32853;52.164;5.400;2023-07-22T11:19:56;8.07;;;2.33;;
47103;SDS011;32853;52.164;5.400;2023-07-22T11:22:22;5.63;;;2.50;;
47103;SDS011;32853;52.164;5.400;2023-07-22T11:24:48;8.20;;;2.75;;
47103;SDS011;32853;52.164;5.400;2023-07-22T11:27:13;7.47;;;3.08;;
47103;SDS011;32853;52.164;5.400;2023-07-22T11:29:39;3.95;;;2.15;;
47103;SDS011;32853;52.164;5.400;2023-07-22T11:32:05;5.57;;;2.60;;
47103;SDS011;32853;52.164;5.400;2023-07-22T11:34:32;7.10;;;3.70;;
47103;SDS011;32853;52.164;5.400;2023-07-22T11:37:01;3.05;;;2.10;;
47103;SDS011;32853;52.164;5.400;2023-07-22T11:39:30;2.70;;;1.83;;
47103;SDS011;32853;52.164;5.400;2023-07-22T11:41:59;4.63;;;2.03;;
47103;SDS011;32853;52.164;5.400;2023-07-22T11:44:27;4.85;;;1.77;;
47103;SDS011;32853;52.164;5.400;2023-07-22T11:47:00;4.95;;;2.03;;
47103;SDS011;32853;52.164;5.400;2023-07-22T11:49:35;6.38;;;1.80;;
47103;SDS011;32853;52.164;5.400;2023-07-22T11:52:15;4.65;;;1.88;;
47103;SDS011;32853;52.164;5.400;2023-07-22T11:54:45;8.52;;;2.13;;
47103;SDS011;32853;52.164;5.400;2023-07-22T12:02:18;7.10;;;2.20;;
47103;SDS011;32853;52.164;5.400;2023-07-22T12:04:55;8.85;;;2.15;;
47103;SDS011;32853;52.164;5.400;2023-07-22T12:07:29;7.25;;;2.03;;
47103;SDS011;32853;52.164;5.400;2023-07-22T12:09:56;7.75;;;2.60;;
47103;SDS011;32853;52.164;5.400;2023-07-22T12:12:32;7.97;;;2.55;;
47103;SDS011;32853;52.164;5.400;2023-07-22T12:20:16;6.90;;;2.35;;
47103;SDS011;32853;52.164;5.400;2023-07-22T12:25:22;6.10;;;2.45;;
47103;SDS011;32853;52.164;5.400;2023-07-22T12:27:48;6.82;;;2.70;;
47103;SDS011;32853;52.164;5.400;2023-07-22T12:30:15;7.25;;;2.72;;
47103;SDS011;32853;52.164;5.400;2023-07-22T12:32:47;8.07;;;3.03;;
47103;SDS011;32853;52.164;5.400;2023-07-22T12:35:25;9.23;;;2.38;;
47103;SDS011;32853;52.164;5.400;2023-07-22T12:37:50;4.22;;;2.20;;
47103;SDS011;32853;52.164;5.400;2023-07-22T12:40:16;6.95;;;2.40;;
47103;SDS011;32853;52.164;5.400;2023-07-22T12:42:42;6.15;;;2.60;;
47103;SDS011;32853;52.164;5.400;2023-07-22T12:45:08;3.80;;;2.17;;
47103;SDS011;32853;52.164;5.400;2023-07-22T12:47:34;10.25;;;3.28;;
47103;SDS011;32853;52.164;5.400;2023-07-22T12:49:59;5.22;;;2.63;;
47103;SDS011;32853;52.164;5.400;2023-07-22T12:52:24;11.93;;;3.50;;
47103;SDS011;32853;52.164;5.400;2023-07-22T12:54:50;7.93;;;3.67;;
47103;SDS011;32853;52.164;5.400;2023-07-22T12:57:16;6.13;;;3.15;;
47103;SDS011;32853;52.164;5.400;2023-07-22T12:59:41;12.13;;;3.85;;
47103;SDS011;32853;52.164;5.400;2023-07-22T13:02:07;7.97;;;3.72;;
47103;SDS011;32853;52.164;5.400;2023-07-22T13:04:32;9.48;;;4.35;;
47103;SDS011;32853;52.164;5.400;2023-07-22T13:09:31;9.32;;;3.40;;
47103;SDS011;32853;52.164;5.400;2023-07-22T13:11:57;7.53;;;4.32;;
47103;SDS011;32853;52.164;5.400;2023-07-22T13:14:22;8.55;;;3.42;;
47103;SDS011;32853;52.164;5.400;2023-07-22T13:16:47;10.25;;;3.47;;
47103;SDS011;32853;52.164;5.400;2023-07-22T13:19:13;9.57;;;3.33;;
47103;SDS011;32853;52.164;5.400;2023-07-22T13:21:38;11.07;;;5.40;;
47103;SDS011;32853;52.164;5.400;2023-07-22T13:29:35;19.00;;;4.75;;
47103;SDS011;32853;52.164;5.400;2023-07-22T13:32:01;8.68;;;2.58;;
47103;SDS011;32853;52.164;5.400;2023-07-22T13:34:30;8.68;;;3.03;;
47103;SDS011;32853;52.164;5.400;2023-07-22T13:36:59;10.07;;;2.97;;
47103;SDS011;32853;52.164;5.400;2023-07-22T13:42:00;7.35;;;3.10;;
47103;SDS011;32853;52.164;5.400;2023-07-22T13:44:35;6.20;;;3.17;;
47103;SDS011;32853;52.164;5.400;2023-07-22T13:47:20;8.98;;;2.78;;
47103;SDS011;32853;52.164;5.400;2023-07-22T13:49:45;8.48;;;2.58;;
47103;SDS011;32853;52.164;5.400;2023-07-22T13:52:13;9.45;;;3.13;;
47103;SDS011;32853;52.164;5.400;2023-07-22T13:54:42;5.85;;;2.30;;
47103;SDS011;32853;52.164;5.400;2023-07-22T13:57:08;4.40;;;1.95;;
47103;SDS011;32853;52.164;5.400;2023-07-22T13:59:34;4.97;;;2.10;;
47103;SDS011;32853;52.164;5.400;2023-07-22T14:02:02;6.10;;;2.42;;
47103;SDS011;32853;52.164;5.400;2023-07-22T14:04:29;4.28;;;1.88;;
47103;SDS011;32853;52.164;5.400;2023-07-22T14:06:57;6.90;;;1.30;;
47103;SDS011;32853;52.164;5.400;2023-07-22T14:09:30;5.38;;;1.63;;
47103;SDS011;32853;52.164;5.400;2023-07-22T14:11:55;8.77;;;2.03;;
47103;SDS011;32853;52.164;5.400;2023-07-22T14:14:37;4.18;;;1.95;;
47103;SDS011;32853;52.164;5.400;2023-07-22T14:17:03;7.30;;;2.08;;
47103;SDS011;32853;52.164;5.400;2023-07-22T14:19:29;7.18;;;1.73;;
47103;SDS011;32853;52.164;5.400;2023-07-22T14:21:58;4.53;;;1.70;;
47103;SDS011;32853;52.164;5.400;2023-07-22T14:24:23;6.15;;;1.50;;
47103;SDS011;32853;52.164;5.400;2023-07-22T14:26:51;10.68;;;1.58;;
47103;SDS011;32853;52.164;5.400;2023-07-22T14:29:28;5.57;;;2.85;;
47103;SDS011;32853;52.164;5.400;2023-07-22T14:32:01;2.90;;;1.60;;
47103;SDS011;32853;52.164;5.400;2023-07-22T14:34:27;2.42;;;1.40;;
47103;SDS011;32853;52.164;5.400;2023-07-22T14:36:53;3.72;;;1.50;;
47103;SDS011;32853;52.164;5.400;2023-07-22T14:39:18;5.00;;;2.58;;
47103;SDS011;32853;52.164;5.400;2023-07-22T14:41:45;6.30;;;2.10;;
47103;SDS011;32853;52.164;5.400;2023-07-22T14:46:55;5.38;;;1.17;;
47103;SDS011;32853;52.164;5.400;2023-07-22T14:49:21;8.30;;;1.77;;
47103;SDS011;32853;52.164;5.400;2023-07-22T14:51:48;9.82;;;1.85;;
47103;SDS011;32853;52.164;5.400;2023-07-22T14:54:16;7.82;;;1.92;;
47103;SDS011;32853;52.164;5.400;2023-07-22T14:56:44;3.28;;;1.30;;
47103;SDS011;32853;52.164;5.400;2023-07-22T14:59:14;5.78;;;2.90;;
47103;SDS011;32853;52.164;5.400;2023-07-22T15:04:09;7.10;;;1.63;;
47103;SDS011;32853;52.164;5.400;2023-07-22T15:06:35;3.63;;;1.60;;
47103;SDS011;32853;52.164;5.400;2023-07-22T15:09:01;2.80;;;1.23;;
47103;SDS011;32853;52.164;5.400;2023-07-22T15:11:27;3.47;;;1.40;;
47103;SDS011;32853;52.164;5.400;2023-07-22T15:13:52;3.55;;;1.30;;
47103;SDS011;32853;52.164;5.400;2023-07-22T15:16:18;3.42;;;1.27;;
47103;SDS011;32853;52.164;5.400;2023-07-22T15:18:43;2.38;;;1.40;;
47103;SDS011;32853;52.164;5.400;2023-07-22T15:21:09;4.72;;;1.80;;
47103;SDS011;32853;52.164;5.400;2023-07-22T15:23:35;4.35;;;1.85;;
47103;SDS011;32853;52.164;5.400;2023-07-22T15:26:02;4.20;;;1.85;;
47103;SDS011;32853;52.164;5.400;2023-07-22T15:28:28;4.28;;;1.42;;
47103;SDS011;32853;52.164;5.400;2023-07-22T15:31:00;5.75;;;1.23;;
47103;SDS011;32853;52.164;5.400;2023-07-22T15:33:30;5.13;;;1.05;;
47103;SDS011;32853;52.164;5.400;2023-07-22T15:35:56;5.95;;;1.42;;
47103;SDS011;32853;52.164;5.400;2023-07-22T15:38:27;1.92;;;1.02;;
47103;SDS011;32853;52.164;5.400;2023-07-22T15:40:55;3.42;;;1.33;;
47103;SDS011;32853;52.164;5.400;2023-07-22T15:43:23;5.57;;;1.60;;